aviador You're here:

SAZS Decoded Metar

SAN CARLOS DE BARILOCH in ARGENTINA
Report Time2017-11-23 22:00:00
UTC Time2017-11-23 22:13:00
Flight Rules vfr VFR
Wind290° at 20 kt
W.Decomp.*RWY 29: 19.8 kt HW 2.8 kt LCW
W.Rank290° ranks 2
Current wind is above 290° avg. (14.7)
Visibility9999 m
Phenomena:N/A
Clouds:N/A
Expected CloudBase > 7,200 ft AGL from Temp-Dew spread
CeilingNone
Temp16°C (ISA +6)
Dew Point-2°C (29% RH)
AAT6.5°C
QNH1015 hPa
Density Alt3,527 ft
Elevation2,756 ft
Report Wrong Elevation
Raw Report
METAR SAZS 232200Z 29020KT CAVOK 16/M02 Q1015=

Extra information for SAZS:More info

Metar Taf Metar & Taf Last 4 Metars F.Rules Stats Wind Profile Meteogram Temp Stats Airport Information Weather charts Add Link Nearby VenuesMetar ALERT Operation Metar Decoded Social comments